Wheatley Heights, New York
Current Conditions -  °F | °C
As of 9:53 PM on Friday 21 Nov 2014 (Local Time) from KFRG Reporting Station
Clear Clear  
Wind Chill: 24°   Ceiling: Unl
Heat Index: 31°   Visibility: 10mi
Dew Point:   Wind: 7mph
Humidity: 40%   Direction: 320°NW
Pressure: 30.49"   Gusts: NA
Location:  40.7545°N, 73.3665°W
Report Text: KFRG 220253Z 32006KT 10SM CLR M01/M13 A3049 RMK AO2 SLP326 T10061128 51009
Loading
Personal Weather Stations






























Interactive Weather Map New forecast layout! Learn more

10-Day Weather Forecast

Advertisements
Track Severe Weather on mobile